Time;durP1;ratioP1;P1;durP2;ratioP2;P2;SDS_P1;SDS_P2;PMS_P1;PMS_P2;Temp;Humidity;BMP_temperature;BMP_pressure;BME280_temperature;BME280_humidity;BME280_pressure;Samples;Min_cycle;Max_cycle;Signal;HPM_P1;HPM_P2
2022/07/29 00:00:08;;;;;;;3.15;1.58;;;18.90;96.00;;;;;;5014402;28;20184;-50
2022/07/29 00:02:34;;;;;;;4.32;1.92;;;18.90;96.10;;;;;;5027362;28;20211;-47
2022/07/29 00:05:01;;;;;;;8.30;2.00;;;18.90;96.20;;;;;;5027178;28;20238;-47
2022/07/29 00:07:26;;;;;;;5.82;1.85;;;18.90;96.30;;;;;;5014845;28;20259;-52
2022/07/29 00:09:52;;;;;;;6.15;2.03;;;18.90;96.40;;;;;;5031135;28;20219;-52
2022/07/29 00:12:20;;;;;;;5.22;1.75;;;18.80;96.50;;;;;;5031156;28;20253;-49
2022/07/29 00:14:46;;;;;;;2.97;1.75;;;18.80;96.60;;;;;;5031108;28;20184;-50
2022/07/29 00:17:12;;;;;;;4.68;1.85;;;18.80;97.00;;;;;;5017892;28;20228;-45
2022/07/29 00:19:38;;;;;;;5.63;1.65;;;18.80;96.80;;;;;;5030220;28;20188;-46
2022/07/29 00:22:04;;;;;;;3.60;1.80;;;18.80;96.80;;;;;;5020648;28;20188;-53
2022/07/29 00:24:29;;;;;;;5.13;2.03;;;18.80;96.90;;;;;;5014244;28;20640;-52
2022/07/29 00:26:55;;;;;;;7.88;1.90;;;18.80;96.90;;;;;;5019241;28;20656;-50
2022/07/29 00:29:22;;;;;;;4.88;2.28;;;18.80;97.00;;;;;;5012538;28;20176;-47
2022/07/29 00:31:47;;;;;;;3.28;2.03;;;18.80;97.10;;;;;;5023305;28;20246;-50
2022/07/29 00:36:58;;;;;;;6.60;2.20;;;18.80;97.20;;;;;;5030886;28;20219;-53
2022/07/29 00:39:24;;;;;;;4.32;2.00;;;18.80;97.20;;;;;;5030631;28;20186;-54
2022/07/29 00:41:50;;;;;;;7.25;2.30;;;18.70;97.30;;;;;;5016001;28;20192;-52
2022/07/29 00:44:16;;;;;;;4.00;1.83;;;18.70;97.40;;;;;;5012243;28;20188;-52
2022/07/29 00:46:41;;;;;;;3.78;1.70;;;18.70;97.50;;;;;;5013197;28;20204;-49
2022/07/29 00:49:08;;;;;;;4.00;1.90;;;18.70;97.50;;;;;;5036241;28;20190;-48
2022/07/29 00:51:36;;;;;;;5.88;1.80;;;18.70;97.50;;;;;;5024950;28;20185;-49
2022/07/29 00:54:03;;;;;;;4.68;1.60;;;18.70;97.60;;;;;;5013137;28;20177;-47
2022/07/29 00:56:33;;;;;;;4.05;1.50;;;18.70;97.60;;;;;;5014394;28;20208;-46
2022/07/29 00:58:59;;;;;;;3.20;1.77;;;18.70;97.70;;;;;;5013197;28;20184;-48
2022/07/29 01:01:25;;;;;;;2.92;1.80;;;18.70;97.70;;;;;;5011569;28;20185;-49
2022/07/29 01:03:52;;;;;;;4.30;1.60;;;18.60;97.70;;;;;;5013810;28;20180;-50
2022/07/29 01:06:19;;;;;;;3.88;1.50;;;18.60;97.70;;;;;;5012392;28;20216;-50
2022/07/29 01:08:47;;;;;;;5.32;1.80;;;18.60;97.80;;;;;;5012438;28;20598;-49
2022/07/29 01:11:15;;;;;;;6.65;1.65;;;18.60;97.90;;;;;;5012576;28;20282;-47
2022/07/29 01:13:42;;;;;;;5.78;1.83;;;18.60;97.90;;;;;;5011348;28;20271;-50
2022/07/29 01:16:20;;;;;;;5.95;1.75;;;18.60;98.00;;;;;;5012130;28;20294;-53
2022/07/29 01:18:49;;;;;;;11.10;2.50;;;18.60;98.10;;;;;;5011935;28;20230;-49
2022/07/29 01:21:33;;;;;;;5.35;1.70;;;18.50;98.10;;;;;;5012509;28;20624;-45
2022/07/29 01:24:10;;;;;;;4.07;1.67;;;18.50;98.10;;;;;;5013118;28;20183;-50
2022/07/29 01:26:52;;;;;;;6.00;2.00;;;18.50;98.20;;;;;;5021590;28;20620;-48
2022/07/29 01:29:28;;;;;;;3.67;1.60;;;18.40;98.30;;;;;;5030779;28;20184;-53
2022/07/29 01:32:08;;;;;;;3.92;1.70;;;18.40;98.30;;;;;;5019344;28;20187;-53
2022/07/29 01:34:52;;;;;;;3.85;1.75;;;18.40;98.40;;;;;;5029000;28;20191;-50
2022/07/29 01:37:28;;;;;;;6.10;1.95;;;18.40;98.50;;;;;;5012427;28;20211;-52
2022/07/29 01:39:57;;;;;;;5.30;1.67;;;18.30;98.50;;;;;;5025177;28;20175;-51
2022/07/29 01:42:48;;;;;;;4.78;1.73;;;18.30;98.60;;;;;;5027144;28;20180;-51
2022/07/29 01:45:27;;;;;;;5.15;1.60;;;18.30;98.70;;;;;;5012237;28;20177;-52
2022/07/29 01:48:03;;;;;;;4.10;1.70;;;18.30;98.80;;;;;;5016269;28;20177;-53
2022/07/29 01:50:38;;;;;;;3.85;1.70;;;18.30;98.80;;;;;;5023470;28;20263;-53
2022/07/29 01:53:09;;;;;;;5.70;1.77;;;18.30;98.90;;;;;;5011556;28;20203;-52
2022/07/29 01:55:40;;;;;;;4.82;2.10;;;18.20;99.00;;;;;;5021804;28;20192;-53
2022/07/29 01:58:07;;;;;;;5.35;1.90;;;18.20;99.00;;;;;;5011288;28;20181;-49
2022/07/29 02:00:35;;;;;;;3.83;1.88;;;18.20;99.10;;;;;;5014232;28;20655;-49
2022/07/29 02:03:05;;;;;;;3.60;1.63;;;18.20;99.10;;;;;;5011685;28;20191;-51
2022/07/29 02:05:33;;;;;;;2.92;1.50;;;18.20;99.20;;;;;;5010218;28;20221;-49
2022/07/29 02:08:00;;;;;;;3.78;1.65;;;18.20;99.60;;;;;;5012481;28;20176;-53
2022/07/29 02:10:29;;;;;;;7.65;1.65;;;18.20;99.30;;;;;;5019017;28;20549;-51
2022/07/29 02:12:57;;;;;;;3.83;1.77;;;18.20;99.30;;;;;;5031712;28;20199;-49
2022/07/29 02:15:26;;;;;;;5.18;1.65;;;18.20;99.40;;;;;;5030234;28;20628;-51
2022/07/29 02:17:58;;;;;;;3.72;1.92;;;18.20;99.40;;;;;;5011289;28;20331;-48
2022/07/29 02:20:26;;;;;;;4.05;1.77;;;18.20;99.50;;;;;;5010879;28;20213;-52
2022/07/29 02:22:53;;;;;;;4.68;1.73;;;18.20;99.50;;;;;;5013105;28;20193;-49
2022/07/29 02:25:21;;;;;;;4.78;1.90;;;18.20;99.50;;;;;;5012336;28;20554;-47
2022/07/29 02:27:50;;;;;;;6.20;2.05;;;18.20;99.60;;;;;;5012082;28;20242;-48
2022/07/29 02:30:19;;;;;;;5.43;2.17;;;18.10;99.60;;;;;;5013794;28;20207;-51
2022/07/29 02:32:46;;;;;;;5.03;2.22;;;18.10;99.60;;;;;;4998758;28;20644;-50
2022/07/29 02:35:14;;;;;;;3.55;1.98;;;18.10;99.70;;;;;;5031039;28;20185;-52
2022/07/29 02:37:43;;;;;;;6.72;1.83;;;18.10;99.70;;;;;;5015001;28;20245;-47
2022/07/29 02:40:12;;;;;;;7.90;2.08;;;18.10;99.70;;;;;;5015497;28;20223;-49
2022/07/29 02:42:41;;;;;;;3.33;2.00;;;18.10;99.80;;;;;;5014565;28;20187;-53
2022/07/29 02:45:08;;;;;;;7.88;2.55;;;18.10;99.80;;;;;;5034074;28;20180;-50
2022/07/29 02:47:44;;;;;;;5.30;2.13;;;18.10;99.80;;;;;;5016715;28;20197;-49
2022/07/29 02:50:23;;;;;;;4.88;2.30;;;18.00;99.80;;;;;;5015415;28;20239;-53
2022/07/29 02:53:05;;;;;;;4.38;2.20;;;18.10;99.90;;;;;;5016028;28;20180;-51
2022/07/29 02:55:39;;;;;;;4.32;2.20;;;18.00;99.80;;;;;;5029146;28;20183;-52
2022/07/29 02:58:59;;;;;;;3.97;1.95;;;18.00;99.90;;;;;;5015395;28;20180;-48
2022/07/29 03:01:28;;;;;;;7.10;1.90;;;18.00;99.80;;;;;;5011582;28;20215;-48
2022/07/29 03:03:55;;;;;;;5.47;2.13;;;17.90;99.90;;;;;;5028763;28;20196;-53
2022/07/29 03:06:27;;;;;;;5.07;2.15;;;17.90;99.90;;;;;;5025889;28;20228;-52
2022/07/29 03:08:55;;;;;;;5.15;2.13;;;17.90;99.90;;;;;;5014768;28;20181;-53
2022/07/29 03:11:21;;;;;;;4.97;2.60;;;17.90;99.90;;;;;;5014706;28;20180;-50
2022/07/29 03:13:49;;;;;;;4.60;2.25;;;18.00;99.90;;;;;;5014160;28;20648;-50
2022/07/29 03:16:15;;;;;;;3.75;2.35;;;17.90;99.90;;;;;;5022063;28;20220;-50
2022/07/29 03:18:42;;;;;;;4.03;2.03;;;17.90;99.90;;;;;;5013968;28;20237;-50
2022/07/29 03:21:08;;;;;;;5.55;2.47;;;17.90;99.90;;;;;;5019421;28;20237;-52
2022/07/29 03:23:34;;;;;;;5.03;2.40;;;17.90;99.90;;;;;;5033399;28;20184;-52
2022/07/29 03:26:00;;;;;;;3.42;2.30;;;17.90;99.90;;;;;;5018852;28;20275;-48
2022/07/29 03:28:27;;;;;;;4.22;2.65;;;17.80;99.90;;;;;;5025527;28;20191;-52
2022/07/29 03:30:53;;;;;;;5.57;2.25;;;17.80;99.90;;;;;;5029269;28;20207;-50
2022/07/29 03:33:19;;;;;;;7.03;2.80;;;17.80;99.90;;;;;;5013792;28;20185;-51
2022/07/29 03:35:45;;;;;;;5.30;2.20;;;17.80;99.90;;;;;;5013196;28;20670;-52
2022/07/29 03:38:10;;;;;;;6.10;2.17;;;17.80;99.90;;;;;;5014444;28;20191;-52
2022/07/29 03:41:01;;;;;;;3.45;2.40;;;17.70;99.90;;;;;;5044868;28;20184;-48
2022/07/29 03:43:30;;;;;;;4.32;2.25;;;17.70;99.90;;;;;;5014484;28;20183;-50
2022/07/29 03:45:59;;;;;;;7.10;2.30;;;17.80;99.90;;;;;;5013066;28;20275;-48
2022/07/29 03:48:26;;;;;;;7.57;2.60;;;17.80;99.90;;;;;;5026822;28;20190;-48
2022/07/29 03:50:52;;;;;;;7.97;2.80;;;17.70;99.90;;;;;;5047343;28;20181;-48
2022/07/29 03:53:18;;;;;;;6.63;2.50;;;17.70;99.90;;;;;;5034166;28;20180;-49
2022/07/29 03:55:49;;;;;;;4.68;2.17;;;17.70;99.90;;;;;;5020530;28;20210;-53
2022/07/29 03:58:16;;;;;;;4.97;1.92;;;17.70;99.90;;;;;;5024549;28;20257;-48
2022/07/29 04:00:43;;;;;;;6.80;2.60;;;17.60;99.90;;;;;;5029286;28;20257;-49
2022/07/29 04:03:10;;;;;;;5.28;2.65;;;17.60;99.90;;;;;;5026265;28;20239;-49
2022/07/29 04:05:36;;;;;;;4.18;2.53;;;17.60;99.90;;;;;;5030842;28;20297;-48
2022/07/29 04:08:02;;;;;;;6.18;2.40;;;17.60;99.90;;;;;;5012764;28;20181;-50
2022/07/29 04:10:28;;;;;;;5.22;2.70;;;17.60;99.90;;;;;;5012639;28;20255;-51
2022/07/29 04:12:54;;;;;;;6.05;2.50;;;17.60;99.90;;;;;;5024293;28;20617;-46
2022/07/29 04:15:20;;;;;;;11.65;2.90;;;17.60;99.90;;;;;;5012495;28;20714;-56
2022/07/29 04:17:45;;;;;;;7.80;2.65;;;17.50;99.90;;;;;;5015513;28;20223;-50
2022/07/29 04:20:14;;;;;;;6.43;2.60;;;17.50;99.90;;;;;;5025799;28;20647;-48
2022/07/29 04:22:40;;;;;;;5.45;2.75;;;17.50;99.90;;;;;;5011263;28;20552;-47
2022/07/29 04:25:07;;;;;;;11.43;3.00;;;17.50;99.90;;;;;;5013221;28;20196;-51
2022/07/29 04:27:32;;;;;;;5.10;3.60;;;17.40;99.90;;;;;;5013154;28;20266;-50
2022/07/29 04:29:58;;;;;;;5.35;2.80;;;17.40;99.90;;;;;;5006161;28;20624;-46
2022/07/29 04:32:25;;;;;;;7.10;2.78;;;17.40;99.90;;;;;;5013058;28;20620;-48
2022/07/29 04:34:51;;;;;;;10.95;3.40;;;17.40;99.90;;;;;;5012110;28;20188;-51
2022/07/29 04:37:17;;;;;;;7.00;3.00;;;17.40;99.90;;;;;;5012772;28;20310;-50
2022/07/29 04:39:43;;;;;;;4.97;3.20;;;17.40;99.90;;;;;;5011801;28;20664;-46
2022/07/29 04:42:09;;;;;;;5.20;3.10;;;17.30;99.90;;;;;;5012524;28;20197;-48
2022/07/29 04:44:34;;;;;;;7.45;3.05;;;17.30;99.90;;;;;;5013283;28;20188;-48
2022/07/29 04:47:02;;;;;;;5.40;3.10;;;17.30;99.90;;;;;;5026933;28;20191;-48
2022/07/29 04:49:28;;;;;;;6.05;3.10;;;17.30;99.90;;;;;;5033000;28;20183;-48
2022/07/29 04:51:54;;;;;;;9.23;2.83;;;17.30;99.90;;;;;;5026578;28;20185;-48
2022/07/29 04:54:19;;;;;;;5.45;2.97;;;17.30;99.90;;;;;;5028695;28;20210;-49
2022/07/29 04:56:46;;;;;;;7.68;3.22;;;17.20;99.90;;;;;;5029192;28;20268;-47
2022/07/29 04:59:12;;;;;;;10.57;3.35;;;17.20;99.90;;;;;;5031833;28;20651;-48
2022/07/29 05:01:38;;;;;;;7.63;3.67;;;17.20;99.90;;;;;;5019167;28;20201;-52
2022/07/29 05:04:03;;;;;;;10.50;3.80;;;17.20;99.90;;;;;;5012615;28;20334;-50
2022/07/29 05:06:29;;;;;;;6.72;2.97;;;17.20;99.90;;;;;;5018677;28;20235;-49
2022/07/29 05:08:55;;;;;;;8.60;3.40;;;17.20;99.90;;;;;;5012510;28;20180;-48
2022/07/29 05:11:21;;;;;;;7.80;3.17;;;17.20;99.90;;;;;;5019368;28;20658;-50
2022/07/29 05:13:47;;;;;;;10.32;3.50;;;17.20;99.90;;;;;;5022447;28;20181;-49
2022/07/29 05:16:14;;;;;;;7.57;3.45;;;17.20;99.90;;;;;;5015985;28;20204;-47
2022/07/29 05:18:39;;;;;;;7.28;3.33;;;17.20;99.90;;;;;;5012137;28;20231;-46
2022/07/29 05:21:05;;;;;;;7.53;3.60;;;17.20;99.90;;;;;;5011170;28;20184;-51
2022/07/29 05:23:31;;;;;;;8.38;3.50;;;17.30;99.90;;;;;;5011440;28;20185;-49
2022/07/29 05:25:57;;;;;;;8.25;3.60;;;17.30;99.90;;;;;;5010599;28;20211;-48
2022/07/29 05:28:22;;;;;;;6.43;3.50;;;17.30;99.90;;;;;;5011597;28;20185;-55
2022/07/29 05:30:49;;;;;;;5.75;3.67;;;17.30;99.90;;;;;;5011334;28;20188;-48
2022/07/29 05:33:15;;;;;;;8.77;3.30;;;17.30;99.90;;;;;;5011725;28;20192;-51
2022/07/29 05:35:41;;;;;;;8.35;3.58;;;17.30;99.90;;;;;;5011210;28;20200;-50
2022/07/29 05:38:06;;;;;;;5.90;3.25;;;17.40;99.90;;;;;;5011353;28;20184;-49
2022/07/29 05:40:33;;;;;;;6.07;3.65;;;17.40;99.90;;;;;;5010954;28;20589;-51
2022/07/29 05:42:59;;;;;;;8.00;3.70;;;17.40;99.90;;;;;;5028830;28;20285;-52
2022/07/29 05:45:25;;;;;;;5.50;2.95;;;17.40;99.90;;;;;;5023556;28;20279;-50
2022/07/29 05:47:51;;;;;;;5.97;3.40;;;17.40;99.90;;;;;;5014208;28;20230;-56
2022/07/29 05:50:17;;;;;;;6.65;3.00;;;17.40;99.90;;;;;;5019713;28;20196;-48
2022/07/29 05:52:42;;;;;;;6.07;3.40;;;17.40;99.90;;;;;;5011930;28;20199;-50
2022/07/29 05:55:08;;;;;;;7.63;3.55;;;17.40;99.90;;;;;;5012279;28;20181;-53
2022/07/29 05:57:34;;;;;;;6.20;3.45;;;17.40;99.90;;;;;;5016495;28;20259;-47
2022/07/29 06:00:00;;;;;;;7.70;3.63;;;17.40;99.90;;;;;;5012268;28;20219;-45
2022/07/29 06:02:27;;;;;;;6.57;3.30;;;17.40;99.90;;;;;;5025776;28;20196;-52
2022/07/29 06:04:53;;;;;;;6.15;4.05;;;17.40;99.90;;;;;;5026519;28;20229;-51
2022/07/29 06:07:19;;;;;;;5.90;3.67;;;17.40;99.90;;;;;;5029515;28;20235;-51
2022/07/29 06:09:45;;;;;;;8.35;3.60;;;17.40;99.90;;;;;;5035409;28;20587;-48
2022/07/29 06:12:11;;;;;;;7.60;3.33;;;17.40;99.90;;;;;;5027088;28;20329;-47
2022/07/29 06:14:37;;;;;;;6.70;3.60;;;17.40;99.90;;;;;;5029775;28;20188;-47
2022/07/29 06:17:05;;;;;;;6.43;3.30;;;17.40;99.90;;;;;;5025736;28;20578;-52
2022/07/29 06:19:31;;;;;;;5.10;2.80;;;17.40;99.90;;;;;;5021189;28;20303;-46
2022/07/29 06:21:56;;;;;;;13.73;3.42;;;17.50;99.90;;;;;;5014565;28;20687;-51
2022/07/29 06:24:22;;;;;;;8.73;3.63;;;17.50;99.90;;;;;;5033057;28;20192;-55
2022/07/29 06:26:49;;;;;;;7.78;3.47;;;17.50;99.90;;;;;;5029950;28;20193;-51
2022/07/29 06:29:14;;;;;;;6.20;3.38;;;17.60;99.90;;;;;;5016842;28;20196;-50
2022/07/29 06:31:40;;;;;;;10.52;3.58;;;17.60;99.90;;;;;;5023172;28;20198;-53
2022/07/29 06:34:06;;;;;;;5.45;3.30;;;17.70;99.90;;;;;;5019291;28;20212;-52
2022/07/29 06:36:36;;;;;;;6.25;3.38;;;17.70;99.90;;;;;;5022126;28;20278;-49
2022/07/29 06:39:06;;;;;;;6.95;3.33;;;17.70;99.90;;;;;;5021248;28;20218;-49
2022/07/29 06:41:33;;;;;;;8.07;3.45;;;17.80;99.90;;;;;;5021953;28;20199;-52
2022/07/29 06:44:07;;;;;;;7.43;3.20;;;17.90;99.90;;;;;;5013447;28;20179;-51
2022/07/29 06:46:33;;;;;;;5.90;3.03;;;17.90;99.90;;;;;;5013645;28;20207;-48
2022/07/29 06:49:01;;;;;;;7.85;3.33;;;18.00;99.90;;;;;;5035854;28;20184;-49
2022/07/29 06:51:27;;;;;;;7.20;3.08;;;18.10;99.90;;;;;;5036537;28;20291;-49
2022/07/29 06:53:53;;;;;;;8.50;3.60;;;18.10;99.90;;;;;;5014186;28;20177;-50
2022/07/29 06:56:19;;;;;;;5.95;3.40;;;18.10;99.90;;;;;;5020817;28;20230;-49
2022/07/29 06:58:44;;;;;;;4.78;3.00;;;18.20;99.90;;;;;;5035110;28;20695;-49
2022/07/29 07:01:10;;;;;;;25.30;10.15;;;18.30;99.90;;;;;;5032342;28;20648;-48
2022/07/29 07:03:36;;;;;;;6.25;3.10;;;18.30;99.90;;;;;;5019351;28;20184;-51
2022/07/29 07:06:03;;;;;;;8.90;3.30;;;18.40;99.90;;;;;;5024657;28;20243;-55
2022/07/29 07:08:28;;;;;;;4.68;3.20;;;18.40;99.90;;;;;;5014432;28;20192;-50
2022/07/29 07:10:55;;;;;;;5.20;3.40;;;18.50;99.90;;;;;;5027913;28;20257;-47
2022/07/29 07:13:20;;;;;;;7.00;3.50;;;18.50;99.90;;;;;;5026595;28;20188;-51
2022/07/29 07:15:48;;;;;;;10.75;3.00;;;18.60;99.90;;;;;;5014659;28;20670;-53
2022/07/29 07:18:15;;;;;;;7.85;3.40;;;18.60;99.90;;;;;;5033906;28;20184;-51
2022/07/29 07:20:41;;;;;;;9.00;3.15;;;18.60;99.90;;;;;;5031343;28;20241;-53
2022/07/29 07:23:07;;;;;;;7.28;3.13;;;18.70;99.90;;;;;;5014009;28;20192;-48
2022/07/29 07:25:34;;;;;;;5.28;3.05;;;18.80;99.90;;;;;;5013721;28;20185;-50
2022/07/29 07:27:59;;;;;;;8.05;3.10;;;18.80;99.90;;;;;;5014291;28;20242;-53
2022/07/29 07:30:26;;;;;;;8.10;2.95;;;18.80;99.90;;;;;;5025759;28;20729;-52
2022/07/29 07:32:52;;;;;;;8.68;3.17;;;18.90;99.90;;;;;;5008325;28;20181;-49
2022/07/29 07:35:19;;;;;;;8.40;3.28;;;18.90;99.90;;;;;;5014735;28;20193;-48
2022/07/29 07:37:45;;;;;;;4.65;3.03;;;18.90;99.90;;;;;;5014285;28;20925;-52
2022/07/29 07:40:11;;;;;;;6.97;3.10;;;18.90;99.90;;;;;;5026635;28;20664;-52
2022/07/29 07:42:39;;;;;;;7.53;2.88;;;19.00;99.90;;;;;;5013743;28;20184;-51
2022/07/29 07:45:05;;;;;;;5.28;3.30;;;19.00;99.90;;;;;;5012513;28;20192;-51
2022/07/29 07:47:32;;;;;;;8.05;3.20;;;19.10;99.90;;;;;;5013257;28;20187;-50
2022/07/29 07:49:58;;;;;;;10.32;6.55;;;19.20;99.90;;;;;;5014090;28;20183;-46
2022/07/29 07:52:24;;;;;;;9.50;3.13;;;19.20;99.90;;;;;;5013647;28;20192;-51
2022/07/29 07:54:50;;;;;;;6.25;2.65;;;19.30;99.90;;;;;;5013706;28;20211;-49
2022/07/29 07:57:16;;;;;;;9.80;8.55;;;19.40;99.90;;;;;;5027509;28;20251;-50
2022/07/29 07:59:42;;;;;;;9.35;8.45;;;19.40;99.90;;;;;;5031498;28;20214;-48
2022/07/29 08:02:09;;;;;;;11.05;2.83;;;19.40;99.90;;;;;;5030634;28;20191;-49
2022/07/29 08:04:36;;;;;;;8.45;3.00;;;19.50;99.90;;;;;;5014460;28;20274;-57
2022/07/29 08:07:02;;;;;;;5.57;2.80;;;19.50;99.90;;;;;;5018637;28;20299;-49
2022/07/29 08:09:29;;;;;;;5.93;2.40;;;19.50;99.90;;;;;;5037348;28;20636;-50
2022/07/29 08:11:57;;;;;;;5.47;2.88;;;19.50;99.90;;;;;;5012061;28;20211;-50
2022/07/29 08:14:23;;;;;;;5.78;3.05;;;19.60;99.90;;;;;;5011254;28;20300;-50
2022/07/29 08:16:49;;;;;;;7.10;2.40;;;19.60;99.90;;;;;;5026866;28;20732;-48
2022/07/29 08:19:15;;;;;;;7.57;3.08;;;19.70;99.90;;;;;;5020694;28;20553;-51
2022/07/29 08:21:41;;;;;;;8.80;2.90;;;19.70;99.90;;;;;;5020506;28;20612;-51
2022/07/29 08:26:51;;;;;;;9.07;4.55;;;19.80;99.90;;;;;;5023117;28;20183;-50
2022/07/29 08:29:17;;;;;;;9.52;2.58;;;20.00;99.90;;;;;;5028623;28;20254;-48
2022/07/29 08:31:45;;;;;;;8.80;2.50;;;20.10;99.70;;;;;;5028687;28;20206;-57
2022/07/29 08:34:11;;;;;;;8.43;2.67;;;20.20;99.20;;;;;;5012758;28;20247;-50
2022/07/29 08:36:38;;;;;;;5.15;2.40;;;20.30;98.80;;;;;;5013044;28;20216;-53
2022/07/29 08:39:04;;;;;;;6.53;2.35;;;20.50;98.60;;;;;;5013366;28;20242;-49
2022/07/29 08:41:31;;;;;;;8.50;3.67;;;20.60;98.20;;;;;;5021196;28;20189;-47
2022/07/29 08:43:57;;;;;;;8.00;2.70;;;20.70;97.70;;;;;;5012680;28;20235;-55
2022/07/29 08:46:23;;;;;;;9.48;2.30;;;20.90;97.50;;;;;;5011252;28;20187;-57
2022/07/29 08:48:49;;;;;;;4.45;2.20;;;20.90;97.10;;;;;;5032785;28;20195;-54
2022/07/29 08:51:20;;;;;;;6.13;2.92;;;21.00;96.90;;;;;;5026796;28;20176;-49
2022/07/29 08:53:48;;;;;;;6.53;2.50;;;21.10;96.50;;;;;;5022496;28;20263;-51
2022/07/29 08:56:18;;;;;;;6.22;2.25;;;21.10;96.20;;;;;;5007922;28;20212;-50
2022/07/29 08:58:49;;;;;;;7.00;2.65;;;21.20;96.00;;;;;;5030893;28;20204;-47
2022/07/29 09:01:17;;;;;;;3.90;2.30;;;21.30;95.90;;;;;;5022218;28;20234;-49
2022/07/29 09:03:45;;;;;;;10.00;2.83;;;21.40;95.60;;;;;;5027295;28;20262;-47
2022/07/29 09:06:20;;;;;;;6.50;2.25;;;21.40;95.30;;;;;;5012419;28;20243;-50
2022/07/29 09:08:47;;;;;;;4.85;2.30;;;21.50;95.10;;;;;;5018073;28;20190;-50
2022/07/29 09:11:14;;;;;;;5.65;2.60;;;21.60;95.00;;;;;;5024472;28;20191;-45
2022/07/29 09:13:40;;;;;;;7.32;2.67;;;21.60;94.70;;;;;;5012536;28;20188;-49
2022/07/29 09:16:06;;;;;;;6.95;2.70;;;21.60;94.60;;;;;;5016000;28;20213;-47
2022/07/29 09:18:42;;;;;;;8.40;2.40;;;21.70;94.50;;;;;;5029675;28;20192;-51
2022/07/29 09:24:12;;;;;;;8.15;3.58;;;21.70;94.00;;;;;;5011666;28;20487;-50
2022/07/29 09:26:46;;;;;;;4.43;2.60;;;21.80;93.60;;;;;;5016771;28;20188;-50
2022/07/29 09:29:15;;;;;;;6.88;2.97;;;21.70;93.50;;;;;;5012743;28;20188;-52
2022/07/29 09:31:43;;;;;;;4.72;2.90;;;21.70;93.30;;;;;;5011750;28;20211;-48
2022/07/29 09:34:10;;;;;;;5.20;2.50;;;21.70;93.30;;;;;;5026931;28;20632;-50
2022/07/29 09:36:45;;;;;;;5.63;3.45;;;21.70;93.30;;;;;;5021532;28;20750;-51
2022/07/29 09:39:12;;;;;;;5.35;2.60;;;21.70;93.30;;;;;;5014326;28;20176;-52
2022/07/29 09:41:47;;;;;;;8.50;2.70;;;21.70;93.20;;;;;;5016074;28;20652;-47
2022/07/29 09:44:14;;;;;;;7.47;2.60;;;21.80;93.20;;;;;;5020891;28;20250;-51
2022/07/29 09:46:51;;;;;;;9.02;2.55;;;21.90;93.20;;;;;;5024747;28;20192;-47
2022/07/29 09:49:17;;;;;;;7.78;2.67;;;21.90;93.10;;;;;;5043854;28;20619;-46
2022/07/29 09:51:44;;;;;;;8.40;3.25;;;22.00;92.90;;;;;;5032784;28;20192;-52
2022/07/29 09:54:26;;;;;;;14.30;6.35;;;22.10;92.80;;;;;;5016122;28;20599;-50
2022/07/29 09:56:52;;;;;;;7.22;2.83;;;22.10;92.40;;;;;;5018805;28;20749;-49
2022/07/29 09:59:20;;;;;;;6.72;2.90;;;22.10;92.60;;;;;;5020840;28;20189;-51
2022/07/29 10:01:46;;;;;;;8.00;2.45;;;22.20;92.70;;;;;;5015989;28;20181;-49
2022/07/29 10:04:12;;;;;;;8.68;3.20;;;22.20;92.70;;;;;;5015343;28;20229;-55
2022/07/29 10:06:57;;;;;;;6.22;2.70;;;22.30;92.70;;;;;;5016221;28;20255;-50
2022/07/29 10:09:23;;;;;;;4.85;2.47;;;22.30;92.50;;;;;;5032729;28;20190;-53
2022/07/29 10:12:13;;;;;;;8.18;2.95;;;22.40;92.50;;;;;;5033967;28;20646;-52
2022/07/29 10:14:40;;;;;;;7.80;2.70;;;22.50;92.50;;;;;;5015743;28;20185;-51
2022/07/29 10:17:07;;;;;;;5.00;2.88;;;22.60;92.30;;;;;;5027540;28;20266;-51
2022/07/29 10:19:34;;;;;;;4.25;2.35;;;22.70;92.20;;;;;;5033638;28;20184;-52
2022/07/29 10:22:02;;;;;;;7.07;3.15;;;22.80;91.90;;;;;;5020950;28;20192;-51
2022/07/29 10:24:30;;;;;;;6.10;2.75;;;22.90;91.60;;;;;;5015859;28;20189;-51
2022/07/29 10:26:59;;;;;;;7.88;3.00;;;22.90;91.10;;;;;;5025103;28;20198;-52
2022/07/29 10:29:25;;;;;;;17.75;2.78;;;22.90;91.00;;;;;;5028656;28;20655;-48
2022/07/29 10:32:18;;;;;;;6.13;2.85;;;22.90;90.70;;;;;;5015367;28;20544;-52
2022/07/29 10:35:10;;;;;;;11.57;3.22;;;22.90;89.70;;;;;;5015517;28;20586;-50
2022/07/29 10:38:05;;;;;;;6.47;3.20;;;22.90;90.10;;;;;;5017577;28;20224;-52
2022/07/29 10:43:42;;;;;;;4.95;2.63;;;22.90;90.10;;;;;;5024277;28;20183;-51
2022/07/29 10:46:09;;;;;;;9.82;3.10;;;22.90;90.10;;;;;;5027496;28;20183;-52
2022/07/29 10:48:35;;;;;;;13.55;3.42;;;23.00;89.80;;;;;;5035028;28;20544;-49
2022/07/29 10:51:04;;;;;;;4.55;2.53;;;23.00;89.00;;;;;;5045830;28;20186;-50
2022/07/29 10:54:04;;;;;;;8.60;3.65;;;23.00;88.80;;;;;;5033810;28;20275;-48
2022/07/29 10:56:33;;;;;;;6.68;3.20;;;23.20;87.60;;;;;;5014564;28;20216;-50
2022/07/29 10:59:20;;;;;;;9.80;2.83;;;23.30;87.30;;;;;;5026291;28;20186;-51
2022/07/29 11:01:48;;;;;;;7.10;3.38;;;23.30;87.60;;;;;;5022459;28;20235;-51
2022/07/29 11:04:14;;;;;;;7.07;2.97;;;23.40;87.50;;;;;;5014874;28;20177;-48
2022/07/29 11:07:04;;;;;;;7.15;3.00;;;23.60;86.90;;;;;;5014045;28;20255;-48
2022/07/29 11:09:31;;;;;;;6.07;2.72;;;23.70;86.70;;;;;;5015217;28;20193;-49
2022/07/29 11:11:57;;;;;;;4.35;2.75;;;23.80;86.30;;;;;;5013998;28;20632;-46
2022/07/29 11:14:54;;;;;;;12.52;3.80;;;23.80;85.40;;;;;;5014071;28;20227;-50
2022/07/29 11:17:20;;;;;;;10.65;4.82;;;23.80;84.80;;;;;;5016140;28;20213;-49
2022/07/29 11:19:47;;;;;;;8.85;3.10;;;23.90;84.50;;;;;;5029528;28;20184;-48
2022/07/29 11:22:32;;;;;;;6.80;2.60;;;23.90;84.30;;;;;;5013384;28;20215;-49
2022/07/29 11:25:15;;;;;;;14.35;7.60;;;24.10;83.30;;;;;;5014269;28;20180;-52
2022/07/29 11:27:41;;;;;;;8.13;3.00;;;24.20;82.80;;;;;;5014070;28;20678;-52
2022/07/29 11:30:09;;;;;;;8.57;3.13;;;24.40;82.50;;;;;;5013664;28;20188;-49
2022/07/29 11:32:40;;;;;;;6.97;2.72;;;24.50;81.80;;;;;;5023025;28;20254;-51
2022/07/29 11:35:21;;;;;;;8.10;2.35;;;24.70;80.70;;;;;;5013175;28;20201;-52
2022/07/29 11:38:22;;;;;;;9.40;2.40;;;24.90;79.40;;;;;;5014662;28;20220;-46
2022/07/29 11:41:26;;;;;;;9.13;2.55;;;25.10;78.20;;;;;;5014690;28;20194;-52
2022/07/29 11:43:57;;;;;;;5.50;2.70;;;25.30;75.80;;;;;;5029059;28;20183;-49
2022/07/29 11:46:49;;;;;;;7.50;2.47;;;25.50;73.30;;;;;;5019807;28;20190;-56
2022/07/29 11:49:22;;;;;;;11.55;2.20;;;25.60;72.80;;;;;;5046269;28;20254;-50
2022/07/29 11:51:57;;;;;;;9.50;2.40;;;25.70;72.00;;;;;;5033544;28;20218;-51
2022/07/29 11:54:33;;;;;;;4.60;2.30;;;25.90;70.50;;;;;;5022570;28;20179;-48
2022/07/29 11:57:00;;;;;;;7.82;2.38;;;26.00;69.70;;;;;;5013609;28;20243;-52
2022/07/29 11:59:29;;;;;;;5.95;2.20;;;26.10;69.20;;;;;;5013703;28;20623;-48
2022/07/29 12:01:57;;;;;;;6.55;2.00;;;26.20;68.10;;;;;;5013218;28;20608;-49
2022/07/29 12:04:24;;;;;;;5.70;1.95;;;26.40;67.90;;;;;;5013232;28;20191;-56
2022/07/29 12:06:54;;;;;;;11.80;2.50;;;26.50;67.40;;;;;;5023536;28;20231;-51
2022/07/29 12:09:21;;;;;;;6.78;2.58;;;26.70;66.00;;;;;;5033265;28;20310;-50
2022/07/29 12:11:48;;;;;;;7.07;2.70;;;26.70;65.10;;;;;;5018850;28;20271;-51
2022/07/29 12:14:28;;;;;;;5.70;2.67;;;26.80;65.20;;;;;;5013018;28;20560;-49
2022/07/29 12:16:55;;;;;;;10.05;3.20;;;26.90;62.30;;;;;;5013189;28;20215;-50
2022/07/29 12:19:20;;;;;;;6.90;2.33;;;26.90;62.50;;;;;;5024145;28;20192;-47
2022/07/29 12:21:52;;;;;;;7.45;2.40;;;27.10;62.00;;;;;;5021114;28;20200;-47
2022/07/29 12:24:19;;;;;;;7.72;2.58;;;27.20;61.90;;;;;;5012618;28;20184;-50
2022/07/29 12:26:57;;;;;;;5.50;2.10;;;27.40;61.50;;;;;;5012173;28;20239;-47
2022/07/29 12:29:23;;;;;;;6.80;2.50;;;27.60;60.90;;;;;;5020735;28;20193;-49
2022/07/29 12:31:53;;;;;;;7.53;2.35;;;27.70;60.70;;;;;;5030460;28;20616;-49
2022/07/29 12:34:23;;;;;;;6.65;2.13;;;27.90;59.80;;;;;;5032791;28;20186;-49
2022/07/29 12:36:49;;;;;;;6.28;2.05;;;28.10;59.10;;;;;;5010823;28;20326;-52
2022/07/29 12:39:18;;;;;;;10.35;2.25;;;28.20;58.30;;;;;;5013132;28;20584;-52
2022/07/29 12:41:45;;;;;;;11.88;2.60;;;28.20;58.10;;;;;;5037568;28;20611;-50
2022/07/29 12:44:11;;;;;;;5.68;2.30;;;28.30;57.90;;;;;;5031991;28;20184;-46
2022/07/29 12:46:38;;;;;;;9.02;2.25;;;28.30;57.70;;;;;;5020676;28;20258;-50
2022/07/29 12:49:04;;;;;;;7.43;2.47;;;28.40;57.00;;;;;;5044125;28;20190;-51
2022/07/29 12:51:40;;;;;;;8.10;2.08;;;28.50;56.50;;;;;;5013712;28;20266;-50
2022/07/29 12:54:10;;;;;;;4.97;2.10;;;28.40;56.30;;;;;;5028084;28;20570;-49
2022/07/29 12:56:37;;;;;;;6.00;2.17;;;28.50;56.60;;;;;;5012728;28;20219;-50
2022/07/29 12:59:20;;;;;;;5.00;1.98;;;28.60;56.80;;;;;;5034660;28;20199;-50
2022/07/29 13:01:55;;;;;;;5.20;2.08;;;28.80;56.60;;;;;;5015466;28;20180;-46
2022/07/29 13:04:28;;;;;;;7.00;2.92;;;29.00;56.10;;;;;;5012568;28;20269;-51
2022/07/29 13:07:03;;;;;;;7.32;1.95;;;29.10;55.30;;;;;;5012401;28;20246;-47